Time;durP1;ratioP1;P1;durP2;ratioP2;P2;SDS_P1;SDS_P2;PMS_P1;PMS_P2;Temp;Humidity;BMP_temperature;BMP_pressure;BME280_temperature;BME280_humidity;BME280_pressure;Samples;Min_cycle;Max_cycle;Signal;HPM_P1;HPM_P2
2022/11/05 00:10:56;;;;;;;9.32;3.25;;;6.90;99.90;;;;;;5014059;28;20054;-72
2022/11/05 00:19:05;;;;;;;12.10;3.50;;;6.60;99.90;;;;;;4996750;28;20066;-71
2022/11/05 00:27:01;;;;;;;9.07;3.70;;;6.50;99.90;;;;;;5016256;28;20053;-72
2022/11/05 00:29:27;;;;;;;10.40;3.72;;;6.60;99.90;;;;;;5016314;28;20049;-72
2022/11/05 00:31:53;;;;;;;14.05;4.53;;;6.60;99.90;;;;;;5049159;28;20053;-75
2022/11/05 00:34:18;;;;;;;9.40;4.07;;;6.60;99.90;;;;;;5032563;28;20049;-71
2022/11/05 00:36:44;;;;;;;10.43;4.30;;;6.50;99.90;;;;;;5049211;28;20496;-72
2022/11/05 00:39:10;;;;;;;13.07;3.65;;;6.50;99.90;;;;;;5048796;28;20136;-71
2022/11/05 00:41:35;;;;;;;10.63;3.42;;;6.30;99.90;;;;;;5049139;28;20056;-72
2022/11/05 00:46:45;;;;;;;9.75;3.63;;;6.20;99.90;;;;;;5015927;28;20132;-71
2022/11/05 00:49:29;;;;;;;13.35;4.38;;;6.00;99.90;;;;;;5048147;28;20537;-71
2022/11/05 00:54:38;;;;;;;12.77;3.88;;;6.00;99.90;;;;;;5015733;28;20053;-71
2022/11/05 00:57:04;;;;;;;13.40;3.95;;;6.00;99.90;;;;;;5048682;28;20128;-71
2022/11/05 00:59:30;;;;;;;12.15;4.40;;;6.10;99.90;;;;;;5015819;28;20050;-71
2022/11/05 01:01:56;;;;;;;8.65;3.50;;;6.40;99.90;;;;;;5031525;28;20053;-71
2022/11/05 01:04:22;;;;;;;11.43;3.80;;;6.10;99.90;;;;;;5048410;28;20053;-72
2022/11/05 01:06:47;;;;;;;11.57;3.65;;;6.30;99.90;;;;;;5048718;28;20478;-71
2022/11/05 01:09:13;;;;;;;9.75;3.53;;;6.10;99.90;;;;;;5047923;28;20434;-71
2022/11/05 01:11:40;;;;;;;7.93;3.47;;;6.40;99.90;;;;;;5015579;28;20037;-71
2022/11/05 01:14:12;;;;;;;8.50;3.60;;;6.10;99.90;;;;;;5031450;28;20053;-71
2022/11/05 01:16:39;;;;;;;9.45;3.75;;;6.70;99.90;;;;;;5048665;28;20065;-71
2022/11/05 01:19:08;;;;;;;10.30;3.50;;;6.30;99.90;;;;;;5015394;28;20042;-71
2022/11/05 01:21:34;;;;;;;9.90;3.80;;;5.70;99.90;;;;;;5015543;28;20448;-71
2022/11/05 01:24:00;;;;;;;12.13;4.40;;;5.80;99.90;;;;;;5048601;28;20054;-71
2022/11/05 01:26:26;;;;;;;7.85;3.47;;;5.60;99.90;;;;;;5014994;28;20053;-72
2022/11/05 01:28:53;;;;;;;6.80;2.78;;;5.60;99.90;;;;;;5015107;28;20393;-71
2022/11/05 01:31:20;;;;;;;11.27;3.40;;;5.60;99.90;;;;;;5015224;28;20081;-71
2022/11/05 01:33:46;;;;;;;8.32;2.80;;;5.70;99.90;;;;;;5031817;28;20103;-72
2022/11/05 01:36:12;;;;;;;7.95;3.08;;;5.70;99.90;;;;;;5031626;28;20049;-71
2022/11/05 01:38:37;;;;;;;8.75;2.75;;;6.00;99.90;;;;;;5048396;28;20521;-71
2022/11/05 01:41:03;;;;;;;8.68;3.15;;;5.90;99.90;;;;;;5031492;28;20437;-71
2022/11/05 01:43:49;;;;;;;13.02;3.00;;;5.80;99.90;;;;;;5031685;28;20045;-71
2022/11/05 01:46:20;;;;;;;9.55;2.78;;;5.80;99.90;;;;;;5015139;28;20053;-71
2022/11/05 01:48:50;;;;;;;7.78;2.58;;;6.60;99.90;;;;;;5014993;28;20389;-71
2022/11/05 01:51:19;;;;;;;6.45;2.70;;;6.00;99.90;;;;;;5014929;28;20478;-71
2022/11/05 01:53:55;;;;;;;9.20;3.00;;;6.00;99.90;;;;;;5047984;28;20053;-71
2022/11/05 01:56:39;;;;;;;5.75;2.20;;;6.80;99.90;;;;;;5014999;28;20052;-71
2022/11/05 01:59:10;;;;;;;10.77;3.30;;;6.10;99.90;;;;;;5015187;28;20049;-74
2022/11/05 02:01:36;;;;;;;10.40;2.78;;;6.50;99.90;;;;;;5015208;28;20045;-71
2022/11/05 02:04:07;;;;;;;13.35;2.75;;;6.10;99.90;;;;;;5015146;28;20123;-71
2022/11/05 02:06:36;;;;;;;6.60;2.97;;;5.90;99.90;;;;;;5048150;28;20048;-71
2022/11/05 02:09:02;;;;;;;6.53;2.85;;;5.90;99.90;;;;;;5031335;28;20397;-71
2022/11/05 02:11:28;;;;;;;7.85;2.25;;;5.90;99.90;;;;;;4998506;28;20045;-71
2022/11/05 02:13:54;;;;;;;7.53;2.30;;;5.80;99.90;;;;;;5016410;28;20041;-71
2022/11/05 02:16:37;;;;;;;5.57;1.98;;;5.80;99.90;;;;;;5051420;28;20050;-71
2022/11/05 02:19:28;;;;;;;5.60;1.98;;;5.90;99.90;;;;;;5051881;28;20433;-71
2022/11/05 02:22:09;;;;;;;8.40;2.63;;;5.90;99.90;;;;;;5051858;28;20051;-72
2022/11/05 02:25:00;;;;;;;6.03;2.53;;;6.00;99.90;;;;;;5051715;28;20041;-71
2022/11/05 02:27:30;;;;;;;8.98;3.10;;;6.10;99.90;;;;;;5034076;28;20077;-72
2022/11/05 02:30:51;;;;;;;8.82;3.28;;;6.20;99.90;;;;;;5018165;28;20049;-71
2022/11/05 02:33:19;;;;;;;12.88;3.80;;;6.30;99.90;;;;;;4979758;28;20475;-71
2022/11/05 02:36:00;;;;;;;8.02;3.50;;;6.40;99.90;;;;;;5018280;28;20049;-72
2022/11/05 02:38:53;;;;;;;11.45;3.58;;;6.40;99.90;;;;;;5018172;28;20510;-72
2022/11/05 02:41:22;;;;;;;8.00;3.20;;;6.40;99.90;;;;;;5034558;28;20049;-72
2022/11/05 02:44:21;;;;;;;10.15;3.65;;;6.50;99.90;;;;;;5018175;28;20045;-72
2022/11/05 02:47:16;;;;;;;8.82;3.00;;;6.50;99.90;;;;;;5018320;28;20132;-71
2022/11/05 02:50:20;;;;;;;10.20;3.53;;;6.50;99.90;;;;;;5018052;28;20056;-72
2022/11/05 02:53:08;;;;;;;7.70;2.92;;;6.30;99.90;;;;;;4958400;28;20057;-71
2022/11/05 02:56:14;;;;;;;8.60;3.30;;;6.10;99.90;;;;;;4958140;28;20042;-71
2022/11/05 02:58:40;;;;;;;10.20;3.03;;;6.00;99.90;;;;;;5010889;28;20050;-71
2022/11/05 03:01:09;;;;;;;8.43;3.40;;;5.80;99.90;;;;;;5017853;28;20056;-71
2022/11/05 03:03:59;;;;;;;7.03;2.88;;;5.70;99.90;;;;;;5034065;28;20061;-71
2022/11/05 03:06:53;;;;;;;9.95;3.08;;;5.70;99.90;;;;;;5017629;28;20067;-71
2022/11/05 03:09:43;;;;;;;9.55;3.28;;;5.60;99.90;;;;;;5011509;28;20057;-71
2022/11/05 03:12:24;;;;;;;8.00;3.15;;;5.60;99.90;;;;;;5017755;28;20056;-71
2022/11/05 03:15:02;;;;;;;10.98;2.95;;;5.70;99.90;;;;;;5017528;28;20049;-71
2022/11/05 03:17:42;;;;;;;11.40;3.10;;;5.70;99.90;;;;;;5017210;28;20068;-71
2022/11/05 03:20:34;;;;;;;7.80;2.80;;;5.70;99.90;;;;;;5018054;28;20054;-71
2022/11/05 03:23:06;;;;;;;6.28;2.78;;;5.80;99.90;;;;;;5017275;28;20401;-71
2022/11/05 03:25:40;;;;;;;10.55;3.10;;;5.90;99.90;;;;;;5013132;28;20482;-71
2022/11/05 03:28:07;;;;;;;8.35;3.08;;;5.90;99.90;;;;;;4997625;28;20398;-71
2022/11/05 03:30:36;;;;;;;7.15;2.90;;;6.00;99.90;;;;;;4997518;28;20049;-71
2022/11/05 03:33:10;;;;;;;10.63;2.72;;;6.10;99.90;;;;;;4997657;28;20132;-72
2022/11/05 03:35:40;;;;;;;7.20;2.67;;;6.20;99.90;;;;;;4997456;28;20054;-71
2022/11/05 03:38:12;;;;;;;11.02;3.03;;;6.30;99.90;;;;;;4997544;28;20100;-71
2022/11/05 03:40:41;;;;;;;7.82;2.47;;;6.20;99.90;;;;;;4997330;28;20057;-71
2022/11/05 03:43:08;;;;;;;10.20;2.63;;;6.20;99.90;;;;;;4997475;28;20097;-71
2022/11/05 03:45:42;;;;;;;8.23;2.30;;;6.20;99.90;;;;;;4997288;28;20049;-71
2022/11/05 03:48:11;;;;;;;8.00;2.30;;;6.40;99.90;;;;;;4997204;28;20088;-71
2022/11/05 03:50:58;;;;;;;5.32;2.42;;;5.80;99.90;;;;;;4997158;28;20061;-71
2022/11/05 03:53:31;;;;;;;14.00;2.60;;;5.70;99.90;;;;;;5023558;28;20052;-71
2022/11/05 03:56:05;;;;;;;7.10;2.60;;;5.60;99.90;;;;;;5036190;28;20485;-71
2022/11/05 03:58:31;;;;;;;4.00;2.40;;;5.60;99.90;;;;;;5036210;28;20053;-72
2022/11/05 04:01:01;;;;;;;7.43;2.50;;;5.60;99.90;;;;;;5036407;28;20101;-72
2022/11/05 04:03:27;;;;;;;7.50;2.33;;;5.50;99.90;;;;;;5035766;28;20037;-72
2022/11/05 04:14:07;;;;;;;8.27;2.72;;;6.10;99.90;;;;;;5053016;28;20057;-71
2022/11/05 04:24:07;;;;;;;9.40;3.08;;;5.60;99.90;;;;;;5053819;28;20076;-71
2022/11/05 04:24:47;;;;;;;8.80;3.08;;;6.30;99.90;;;;;;5052564;28;20452;-71
2022/11/05 04:27:12;;;;;;;8.90;3.05;;;5.70;99.90;;;;;;5068712;28;20148;-71
2022/11/05 04:32:22;;;;;;;8.45;3.13;;;6.10;99.90;;;;;;5055811;28;20496;-71
2022/11/05 04:34:48;;;;;;;6.75;3.08;;;5.70;99.90;;;;;;5039090;28;20052;-71
2022/11/05 04:37:13;;;;;;;10.90;3.33;;;5.70;99.90;;;;;;5054741;28;20044;-71
2022/11/05 04:39:39;;;;;;;8.02;3.53;;;5.70;99.90;;;;;;5055547;28;20044;-72
2022/11/05 04:42:05;;;;;;;10.07;3.47;;;5.60;99.90;;;;;;5055461;28;20050;-71
2022/11/05 04:44:30;;;;;;;13.00;4.22;;;6.10;99.90;;;;;;5055526;28;20037;-71
2022/11/05 04:46:56;;;;;;;15.95;5.93;;;5.60;99.90;;;;;;5055685;28;20044;-71
2022/11/05 04:49:22;;;;;;;14.80;5.95;;;5.50;99.90;;;;;;5071917;28;20481;-71
2022/11/05 04:51:48;;;;;;;12.93;5.90;;;5.50;99.90;;;;;;5055387;28;20040;-71
2022/11/05 04:54:13;;;;;;;14.43;6.43;;;5.50;99.90;;;;;;5055561;28;20489;-71
2022/11/05 04:56:39;;;;;;;17.38;6.38;;;5.50;99.90;;;;;;5055364;28;20127;-71
2022/11/05 04:59:04;;;;;;;13.25;5.55;;;5.50;99.90;;;;;;5055208;28;20044;-71
2022/11/05 05:01:30;;;;;;;12.50;4.82;;;5.50;99.90;;;;;;5055544;28;20548;-71
2022/11/05 05:03:56;;;;;;;11.75;4.90;;;6.20;99.90;;;;;;5054871;28;20068;-71
2022/11/05 05:06:22;;;;;;;9.98;4.45;;;5.40;99.90;;;;;;5055401;28;20041;-72
2022/11/05 05:08:49;;;;;;;11.55;4.35;;;5.60;99.90;;;;;;5054917;28;20058;-71
2022/11/05 05:11:17;;;;;;;11.90;4.82;;;6.00;99.90;;;;;;5055269;28;20079;-71
2022/11/05 05:13:43;;;;;;;8.10;4.38;;;5.80;99.90;;;;;;5055079;28;20106;-71
2022/11/05 05:16:20;;;;;;;10.55;4.72;;;5.80;99.90;;;;;;5054939;28;20409;-71
2022/11/05 05:18:46;;;;;;;11.85;4.47;;;5.90;99.90;;;;;;5038027;28;20052;-71
2022/11/05 05:23:56;;;;;;;12.20;5.20;;;6.10;99.90;;;;;;5054995;28;20048;-71
2022/11/05 05:26:22;;;;;;;11.75;5.03;;;6.40;99.90;;;;;;5051438;28;20080;-71
2022/11/05 05:28:48;;;;;;;10.35;5.05;;;6.20;99.90;;;;;;5001928;28;20055;-71
2022/11/05 05:31:13;;;;;;;11.48;5.03;;;7.10;99.90;;;;;;5002532;28;20044;-71
2022/11/05 05:33:39;;;;;;;11.93;5.35;;;6.30;99.90;;;;;;5002300;28;20555;-71
2022/11/05 05:36:06;;;;;;;13.25;4.53;;;6.40;99.90;;;;;;5018736;28;20087;-71
2022/11/05 05:38:31;;;;;;;11.00;4.75;;;6.50;99.90;;;;;;5035002;28;20057;-70
2022/11/05 05:40:58;;;;;;;10.48;4.95;;;6.70;99.90;;;;;;5051487;28;20091;-71
2022/11/05 05:43:29;;;;;;;8.90;4.57;;;6.50;99.90;;;;;;5034975;28;20059;-71
2022/11/05 05:45:56;;;;;;;12.52;5.45;;;6.50;99.90;;;;;;5018373;28;20048;-71
2022/11/05 05:48:22;;;;;;;12.70;5.05;;;6.50;99.90;;;;;;5019007;28;20382;-71
2022/11/05 05:50:48;;;;;;;11.98;5.40;;;6.50;99.90;;;;;;5038747;28;20056;-71
2022/11/05 05:53:14;;;;;;;12.07;5.10;;;6.70;99.90;;;;;;5038570;28;20048;-71
2022/11/05 05:55:39;;;;;;;12.10;5.35;;;6.50;99.90;;;;;;5038735;28;20127;-73
2022/11/05 05:58:05;;;;;;;10.98;5.60;;;6.50;99.90;;;;;;5030313;28;20080;-71
2022/11/05 06:00:30;;;;;;;12.35;5.70;;;6.50;99.90;;;;;;5018899;28;20048;-71
2022/11/05 06:02:56;;;;;;;7.90;4.10;;;6.40;99.90;;;;;;5018839;28;20470;-71
2022/11/05 06:05:22;;;;;;;13.45;5.63;;;6.40;99.90;;;;;;5018928;28;20103;-72
2022/11/05 06:07:54;;;;;;;9.55;4.55;;;6.40;99.90;;;;;;5018656;28;20042;-71
2022/11/05 06:10:20;;;;;;;10.43;5.35;;;6.50;99.90;;;;;;5018846;28;20037;-71
2022/11/05 06:12:46;;;;;;;12.02;5.53;;;6.40;99.90;;;;;;5018424;28;20100;-71
2022/11/05 06:15:11;;;;;;;19.35;6.05;;;6.30;99.90;;;;;;4986184;28;20052;-72
2022/11/05 06:17:37;;;;;;;17.75;6.97;;;6.30;99.90;;;;;;5018501;28;20084;-71
2022/11/05 06:20:03;;;;;;;18.80;7.65;;;6.20;99.90;;;;;;5035591;28;20067;-71
2022/11/05 06:22:29;;;;;;;26.17;9.10;;;6.20;99.90;;;;;;5018205;28;20387;-71
2022/11/05 06:24:54;;;;;;;19.33;6.88;;;6.00;99.90;;;;;;5018239;28;20052;-70
2022/11/05 06:27:20;;;;;;;22.30;8.05;;;6.10;99.90;;;;;;5017411;28;20084;-71
2022/11/05 06:29:46;;;;;;;22.08;8.07;;;5.90;99.90;;;;;;5070917;28;20057;-71
2022/11/05 06:32:11;;;;;;;14.80;7.13;;;6.00;99.90;;;;;;5054416;28;20045;-71
2022/11/05 06:34:37;;;;;;;14.38;6.72;;;5.90;99.90;;;;;;5071144;28;20072;-71
2022/11/05 06:37:03;;;;;;;17.48;6.93;;;5.90;99.90;;;;;;5071227;28;20049;-71
2022/11/05 06:39:28;;;;;;;19.83;8.40;;;5.90;99.90;;;;;;4717971;28;10000172;-72
2022/11/05 06:41:54;;;;;;;20.77;8.70;;;5.90;99.90;;;;;;5034904;28;20371;-71
2022/11/05 06:44:21;;;;;;;22.30;8.35;;;5.90;99.90;;;;;;5035682;28;20049;-71
2022/11/05 06:46:47;;;;;;;20.20;9.63;;;6.00;99.90;;;;;;5018856;28;20128;-73
2022/11/05 06:49:12;;;;;;;22.08;9.38;;;6.00;99.90;;;;;;5034859;28;20456;-71
2022/11/05 06:51:38;;;;;;;18.10;7.50;;;6.00;99.90;;;;;;5034370;28;20048;-71
2022/11/05 06:54:04;;;;;;;16.75;6.85;;;6.10;99.90;;;;;;5009886;28;20090;-71
2022/11/05 06:56:29;;;;;;;17.40;7.50;;;6.10;99.90;;;;;;5023357;28;20045;-71
2022/11/05 06:58:55;;;;;;;15.60;7.03;;;6.20;99.90;;;;;;5034604;28;20087;-71
2022/11/05 07:01:21;;;;;;;17.40;6.93;;;6.30;99.90;;;;;;5050549;28;20095;-71
2022/11/05 07:03:48;;;;;;;16.45;7.10;;;6.40;99.90;;;;;;5034715;28;20493;-71
2022/11/05 07:06:14;;;;;;;13.35;6.68;;;6.50;99.90;;;;;;5030954;28;20044;-71
2022/11/05 07:08:39;;;;;;;12.00;6.15;;;6.80;99.90;;;;;;5026284;28;20102;-71
2022/11/05 07:11:05;;;;;;;11.07;5.43;;;6.60;99.90;;;;;;5018159;28;20041;-71
2022/11/05 07:13:31;;;;;;;19.88;7.40;;;6.70;99.90;;;;;;5037673;28;20620;-73
2022/11/05 07:15:57;;;;;;;15.57;6.38;;;6.70;99.90;;;;;;5070985;28;20132;-71
2022/11/05 07:18:23;;;;;;;12.57;6.32;;;6.80;99.90;;;;;;5054844;28;20401;-71
2022/11/05 07:20:48;;;;;;;16.83;6.47;;;6.90;99.90;;;;;;5055000;28;20047;-72
2022/11/05 07:23:15;;;;;;;18.45;7.03;;;7.00;99.90;;;;;;5038052;28;20070;-72
2022/11/05 07:25:41;;;;;;;18.70;6.88;;;7.00;99.90;;;;;;5037627;28;20473;-72
2022/11/05 07:28:08;;;;;;;16.23;7.53;;;7.00;99.90;;;;;;5037716;28;20482;-73
2022/11/05 07:30:35;;;;;;;17.10;6.30;;;7.00;99.90;;;;;;5054476;28;20685;-72
2022/11/05 07:33:01;;;;;;;14.85;6.60;;;7.10;99.90;;;;;;5037936;28;20052;-71
2022/11/05 07:35:27;;;;;;;14.68;5.63;;;7.00;99.90;;;;;;5054262;28;20045;-72
2022/11/05 07:37:54;;;;;;;18.17;6.82;;;7.00;99.90;;;;;;5054015;28;20095;-72
2022/11/05 07:40:22;;;;;;;15.77;7.10;;;7.10;99.90;;;;;;5016100;28;20080;-72
2022/11/05 07:42:50;;;;;;;17.42;6.60;;;7.00;99.90;;;;;;5030706;28;20409;-71
2022/11/05 07:45:16;;;;;;;18.83;8.77;;;6.90;99.90;;;;;;5017817;28;20134;-72
2022/11/05 07:47:54;;;;;;;16.60;9.07;;;7.00;99.90;;;;;;5034446;28;20094;-72
2022/11/05 07:50:22;;;;;;;18.23;8.93;;;7.10;99.90;;;;;;5033961;28;20045;-72
2022/11/05 07:52:48;;;;;;;22.85;10.13;;;7.40;99.90;;;;;;5034504;28;20037;-71
2022/11/05 07:55:14;;;;;;;19.63;9.85;;;7.20;99.90;;;;;;5017673;28;20053;-71
2022/11/05 07:57:45;;;;;;;28.58;11.02;;;7.30;99.90;;;;;;5034393;28;20115;-72
2022/11/05 08:00:18;;;;;;;19.05;10.85;;;7.40;99.90;;;;;;5034141;28;20045;-72
2022/11/05 08:02:56;;;;;;;23.58;10.38;;;7.60;99.90;;;;;;5017337;28;20440;-72
2022/11/05 08:05:21;;;;;;;17.02;8.60;;;7.60;99.90;;;;;;5034301;28;20056;-72
2022/11/05 08:07:47;;;;;;;18.33;8.02;;;8.80;99.90;;;;;;5067369;28;20037;-71
2022/11/05 08:10:13;;;;;;;18.27;7.00;;;7.80;99.90;;;;;;5033892;28;20132;-72
2022/11/05 08:12:38;;;;;;;13.85;6.35;;;7.90;99.90;;;;;;5067116;28;20452;-72
2022/11/05 08:15:05;;;;;;;13.43;6.95;;;7.90;99.90;;;;;;5033370;28;20060;-72
2022/11/05 08:17:30;;;;;;;14.55;7.10;;;8.00;99.90;;;;;;5033847;28;20393;-72
2022/11/05 08:19:56;;;;;;;14.82;6.32;;;8.10;99.90;;;;;;5017505;28;20045;-73
2022/11/05 08:22:22;;;;;;;16.15;7.03;;;8.10;99.90;;;;;;5033682;28;20055;-71
2022/11/05 08:24:47;;;;;;;15.05;7.28;;;8.20;99.90;;;;;;5033789;28;20079;-72
2022/11/05 08:27:13;;;;;;;15.10;6.45;;;8.30;99.90;;;;;;5005843;28;20460;-72
2022/11/05 08:29:39;;;;;;;15.63;6.25;;;8.40;99.90;;;;;;5022914;28;20110;-72
2022/11/05 08:32:05;;;;;;;12.88;5.90;;;8.50;99.90;;;;;;5010838;28;20099;-73
2022/11/05 08:34:30;;;;;;;10.02;5.18;;;8.60;99.90;;;;;;5017340;28;20604;-72
2022/11/05 08:36:58;;;;;;;15.38;6.78;;;8.60;99.90;;;;;;5033308;28;20088;-72
2022/11/05 08:39:24;;;;;;;16.05;8.02;;;8.70;99.90;;;;;;5016307;28;20041;-72
2022/11/05 08:41:50;;;;;;;13.70;7.55;;;8.80;99.90;;;;;;5033337;28;20512;-72
2022/11/05 08:44:16;;;;;;;13.75;7.72;;;8.90;99.90;;;;;;5019796;28;20073;-72
2022/11/05 08:46:41;;;;;;;16.23;8.27;;;9.00;99.90;;;;;;5017297;28;20056;-72
2022/11/05 08:49:07;;;;;;;16.48;9.20;;;9.10;99.90;;;;;;5032848;28;20052;-72
2022/11/05 08:51:33;;;;;;;15.95;9.40;;;9.10;99.90;;;;;;5016485;28;20072;-73
2022/11/05 08:53:58;;;;;;;18.33;9.00;;;9.20;99.90;;;;;;5000607;28;20063;-72
2022/11/05 08:56:24;;;;;;;17.50;8.05;;;9.30;99.90;;;;;;5016639;28;20052;-72
2022/11/05 08:58:50;;;;;;;12.95;6.57;;;9.40;99.90;;;;;;5016794;28;20048;-72
2022/11/05 09:01:16;;;;;;;16.17;8.13;;;9.40;99.90;;;;;;5016508;28;20133;-72
2022/11/05 09:03:41;;;;;;;17.05;6.97;;;9.50;99.90;;;;;;5032619;28;20535;-72
2022/11/05 09:06:07;;;;;;;12.98;7.38;;;9.60;99.90;;;;;;5032793;28;20084;-72
2022/11/05 09:08:33;;;;;;;14.93;8.20;;;9.70;99.90;;;;;;5032708;28;20133;-72
2022/11/05 09:10:59;;;;;;;11.73;6.72;;;9.80;99.90;;;;;;5016707;28;20084;-73
2022/11/05 09:13:25;;;;;;;12.55;7.75;;;9.80;99.90;;;;;;5032897;28;20053;-72
2022/11/05 09:15:51;;;;;;;11.38;7.00;;;9.80;99.90;;;;;;5016211;28;20052;-72
2022/11/05 09:18:18;;;;;;;13.40;6.47;;;9.90;99.90;;;;;;5032636;28;20055;-72
2022/11/05 09:20:44;;;;;;;10.25;6.47;;;9.90;99.90;;;;;;5000364;28;20045;-72
2022/11/05 09:23:13;;;;;;;9.85;5.82;;;10.00;99.90;;;;;;5032227;28;20056;-71
2022/11/05 09:25:39;;;;;;;9.48;4.70;;;10.10;99.90;;;;;;5032937;28;20054;-72
2022/11/05 09:28:13;;;;;;;8.07;4.60;;;10.30;99.90;;;;;;5031914;28;20115;-72
2022/11/05 09:30:41;;;;;;;7.65;4.90;;;10.30;99.90;;;;;;5016509;28;20067;-72
2022/11/05 09:33:07;;;;;;;13.30;5.47;;;10.40;99.90;;;;;;5004789;28;20037;-72
2022/11/05 09:35:33;;;;;;;12.60;5.40;;;10.40;99.90;;;;;;5015842;28;20064;-72
2022/11/05 09:37:59;;;;;;;8.93;4.70;;;10.50;99.90;;;;;;5029143;28;20053;-72
2022/11/05 09:40:25;;;;;;;7.97;4.20;;;10.60;99.90;;;;;;5043908;28;20606;-72
2022/11/05 09:42:53;;;;;;;10.32;4.75;;;10.70;99.90;;;;;;5016408;28;20478;-73
2022/11/05 09:45:23;;;;;;;6.35;4.18;;;10.70;99.90;;;;;;5032641;28;20057;-71
2022/11/05 09:47:54;;;;;;;5.90;3.97;;;10.70;99.90;;;;;;5032407;28;20045;-72
2022/11/05 09:50:29;;;;;;;7.47;4.28;;;10.80;99.90;;;;;;5015764;28;20048;-73
2022/11/05 09:52:55;;;;;;;8.30;4.20;;;10.90;99.90;;;;;;5037949;28;20040;-72
2022/11/05 09:55:27;;;;;;;6.18;4.10;;;11.00;99.90;;;;;;5035784;28;20404;-72
2022/11/05 09:57:58;;;;;;;6.25;3.50;;;11.10;99.90;;;;;;5052683;28;20053;-72
2022/11/05 10:00:24;;;;;;;7.75;3.72;;;11.10;99.90;;;;;;5052517;28;20053;-72
2022/11/05 10:02:52;;;;;;;8.25;3.85;;;11.10;99.90;;;;;;5035116;28;20051;-72
2022/11/05 10:05:19;;;;;;;10.75;4.43;;;11.30;99.90;;;;;;5035774;28;20143;-73
2022/11/05 10:07:53;;;;;;;7.93;4.55;;;11.30;99.90;;;;;;5019392;28;20044;-72
2022/11/05 10:10:30;;;;;;;10.35;5.03;;;11.40;99.90;;;;;;5052092;28;20509;-73
2022/11/05 10:13:01;;;;;;;10.30;5.03;;;11.50;99.90;;;;;;5052452;28;20041;-72
2022/11/05 10:15:31;;;;;;;7.03;4.32;;;11.50;99.90;;;;;;5051600;28;20132;-72
2022/11/05 10:18:11;;;;;;;8.65;4.30;;;11.50;99.90;;;;;;5069225;28;20048;-72
2022/11/05 10:20:38;;;;;;;9.02;4.63;;;11.60;99.90;;;;;;5052252;28;20052;-72
2022/11/05 10:23:16;;;;;;;7.18;3.80;;;11.70;99.90;;;;;;5033556;28;20049;-72
2022/11/05 10:25:47;;;;;;;6.32;4.70;;;11.70;99.90;;;;;;5032486;28;20048;-72
2022/11/05 10:28:20;;;;;;;9.38;5.03;;;11.70;99.90;;;;;;5029610;28;20107;-72
2022/11/05 10:30:48;;;;;;;7.03;3.92;;;11.70;99.90;;;;;;5052306;28;20373;-72
2022/11/05 10:33:21;;;;;;;11.63;5.20;;;11.90;99.90;;;;;;5051857;28;20464;-72
2022/11/05 10:35:50;;;;;;;6.85;4.18;;;12.00;99.90;;;;;;5053333;28;20095;-72
2022/11/05 10:38:16;;;;;;;9.90;4.40;;;12.00;99.90;;;;;;5051962;28;20132;-72
2022/11/05 10:41:03;;;;;;;8.80;5.00;;;12.10;99.90;;;;;;5033557;28;20183;-72
2022/11/05 10:43:43;;;;;;;8.32;4.03;;;12.20;99.90;;;;;;5037784;28;20049;-71
2022/11/05 10:46:31;;;;;;;7.18;4.47;;;12.20;99.90;;;;;;5021159;28;20061;-72
2022/11/05 10:49:19;;;;;;;9.93;4.72;;;12.30;99.90;;;;;;5036943;28;20128;-71
2022/11/05 10:51:51;;;;;;;7.72;4.00;;;12.40;99.90;;;;;;5055235;28;20440;-71
2022/11/05 10:54:20;;;;;;;9.32;4.40;;;12.40;99.90;;;;;;5037835;28;20497;-72
2022/11/05 10:56:46;;;;;;;6.82;4.60;;;12.50;99.90;;;;;;5037744;28;20543;-72
2022/11/05 10:59:30;;;;;;;8.40;3.80;;;12.60;99.90;;;;;;5037753;28;20060;-71
2022/11/05 11:02:10;;;;;;;7.28;3.40;;;12.80;99.90;;;;;;5005006;28;20453;-71
2022/11/05 11:04:36;;;;;;;7.03;2.55;;;12.90;99.90;;;;;;5020963;28;20148;-71
2022/11/05 11:07:02;;;;;;;4.78;2.78;;;12.90;99.90;;;;;;5020784;28;20128;-72
2022/11/05 11:09:31;;;;;;;6.90;2.70;;;12.90;99.90;;;;;;5020547;28;20041;-71
2022/11/05 11:12:03;;;;;;;6.75;2.88;;;13.00;99.90;;;;;;5037458;28;20049;-71
2022/11/05 11:14:29;;;;;;;6.25;2.85;;;13.10;99.90;;;;;;5020841;28;20088;-72
2022/11/05 11:17:25;;;;;;;6.40;3.00;;;13.10;99.90;;;;;;5037448;28;20045;-72
2022/11/05 11:20:10;;;;;;;7.18;2.92;;;13.20;99.90;;;;;;5037427;28;20049;-72
2022/11/05 11:22:35;;;;;;;4.25;2.38;;;13.50;99.90;;;;;;5037208;28;20135;-71
2022/11/05 11:25:21;;;;;;;5.95;2.85;;;13.70;99.90;;;;;;5037046;28;20143;-71
2022/11/05 11:27:48;;;;;;;7.35;2.80;;;13.90;99.90;;;;;;5033326;28;20053;-72
2022/11/05 11:30:18;;;;;;;5.53;2.70;;;14.00;99.90;;;;;;5001097;28;20057;-72
2022/11/05 11:32:45;;;;;;;6.80;2.50;;;14.10;99.90;;;;;;5017240;28;20053;-72
2022/11/05 11:35:22;;;;;;;6.60;2.60;;;14.10;99.90;;;;;;5050297;28;20482;-72
2022/11/05 11:37:52;;;;;;;3.30;1.90;;;14.10;99.90;;;;;;5017171;28;20170;-72
2022/11/05 11:40:23;;;;;;;6.72;2.40;;;14.00;99.90;;;;;;5016917;28;20065;-72
2022/11/05 11:42:54;;;;;;;8.82;2.55;;;14.10;99.90;;;;;;5017013;28;20389;-72
2022/11/05 11:45:35;;;;;;;6.28;2.40;;;13.90;99.90;;;;;;5017168;28;20095;-72
2022/11/05 11:48:06;;;;;;;4.20;1.95;;;13.60;99.90;;;;;;5016638;28;20048;-72
2022/11/05 11:50:38;;;;;;;4.75;2.42;;;13.50;99.90;;;;;;5000609;28;20061;-72
2022/11/05 11:53:19;;;;;;;5.07;2.70;;;13.70;99.90;;;;;;5033256;28;20053;-72
2022/11/05 11:55:54;;;;;;;4.03;2.55;;;14.00;99.90;;;;;;5016760;28;20045;-71
2022/11/05 11:58:21;;;;;;;4.40;2.10;;;14.10;99.90;;;;;;5000485;28;20058;-72
2022/11/05 12:01:11;;;;;;;7.72;2.25;;;14.20;99.90;;;;;;5016526;28;20118;-72
2022/11/05 12:03:49;;;;;;;3.65;2.15;;;14.10;99.90;;;;;;5016632;28;20083;-72
2022/11/05 12:06:53;;;;;;;6.95;2.17;;;14.10;99.90;;;;;;5016772;28;20137;-72
2022/11/05 12:09:48;;;;;;;7.22;1.73;;;14.30;99.90;;;;;;5012552;28;20053;-71
2022/11/05 12:12:17;;;;;;;4.50;1.77;;;14.90;99.90;;;;;;5010908;28;20063;-72
2022/11/05 12:15:02;;;;;;;4.85;1.63;;;15.50;99.90;;;;;;5016253;28;20099;-72
2022/11/05 12:17:41;;;;;;;3.20;1.60;;;15.60;99.90;;;;;;5016312;28;20103;-72
2022/11/05 12:20:44;;;;;;;3.15;1.23;;;15.70;99.90;;;;;;5033055;28;20136;-72
2022/11/05 12:23:40;;;;;;;4.15;1.35;;;15.70;99.90;;;;;;5049526;28;20084;-72
2022/11/05 12:26:22;;;;;;;5.88;1.58;;;15.80;99.90;;;;;;4995610;28;20057;-72
2022/11/05 12:29:09;;;;;;;4.80;1.60;;;15.20;99.90;;;;;;5025004;28;20406;-73
2022/11/05 12:31:57;;;;;;;3.30;1.33;;;15.00;99.90;;;;;;5035884;28;20527;-71
2022/11/05 12:34:43;;;;;;;4.80;1.48;;;14.70;99.90;;;;;;5036079;28;20108;-71
2022/11/05 12:37:19;;;;;;;3.00;1.30;;;14.30;99.90;;;;;;5035995;28;20114;-71
2022/11/05 12:40:05;;;;;;;3.83;1.75;;;13.90;99.90;;;;;;5035714;28;20080;-71
2022/11/05 12:42:51;;;;;;;7.03;1.80;;;13.60;99.90;;;;;;5019437;28;20114;-71
2022/11/05 12:45:23;;;;;;;3.63;1.60;;;13.30;99.90;;;;;;5035881;28;20045;-71
2022/11/05 12:48:08;;;;;;;3.33;1.58;;;13.20;99.90;;;;;;5035466;28;20048;-71
2022/11/05 12:50:49;;;;;;;3.00;1.38;;;13.20;99.90;;;;;;5035792;28;20512;-71
2022/11/05 12:53:21;;;;;;;2.80;1.50;;;13.00;99.90;;;;;;5019071;28;20485;-71
2022/11/05 12:55:48;;;;;;;3.85;1.20;;;12.90;99.90;;;;;;5035467;28;20334;-72
2022/11/05 12:58:20;;;;;;;2.40;1.10;;;12.80;99.90;;;;;;5047778;28;20447;-71
2022/11/05 13:00:51;;;;;;;3.00;1.17;;;12.80;99.90;;;;;;5068308;28;20099;-71
2022/11/05 13:03:30;;;;;;;6.18;1.40;;;12.60;99.90;;;;;;5068794;28;20049;-71
2022/11/05 13:06:28;;;;;;;2.92;1.65;;;12.50;99.90;;;;;;5035316;28;20059;-72
2022/11/05 13:09:07;;;;;;;4.80;1.50;;;12.40;99.90;;;;;;5012894;28;20058;-71
2022/11/05 13:11:44;;;;;;;4.05;1.42;;;12.40;99.90;;;;;;5031852;28;20053;-71
2022/11/05 13:14:21;;;;;;;4.82;2.60;;;12.30;99.90;;;;;;5015748;28;20132;-72
2022/11/05 13:16:51;;;;;;;4.22;1.88;;;12.20;99.90;;;;;;4999069;28;20057;-71
2022/11/05 13:19:23;;;;;;;2.60;1.33;;;12.20;99.90;;;;;;5015466;28;20045;-72
2022/11/05 13:22:06;;;;;;;2.13;1.10;;;12.10;99.90;;;;;;5011034;28;20049;-72
2022/11/05 13:24:48;;;;;;;2.80;1.20;;;12.10;99.90;;;;;;5030777;28;20068;-73
2022/11/05 13:27:20;;;;;;;3.83;1.20;;;12.10;99.90;;;;;;5015370;28;20041;-72
2022/11/05 13:29:58;;;;;;;2.45;1.10;;;12.00;99.90;;;;;;5031993;28;20056;-72
2022/11/05 13:32:28;;;;;;;3.50;1.55;;;11.90;99.90;;;;;;5016388;28;20120;-72
2022/11/05 13:34:55;;;;;;;4.78;1.50;;;11.90;99.90;;;;;;5023587;28;20045;-72
2022/11/05 13:40:23;;;;;;;3.13;1.58;;;11.90;99.90;;;;;;5006634;28;20076;-70
2022/11/05 13:43:28;;;;;;;4.13;1.48;;;11.80;99.90;;;;;;5022918;28;20049;-71
2022/11/05 13:46:12;;;;;;;2.75;1.70;;;11.70;99.90;;;;;;4999127;28;20433;-71
2022/11/05 13:48:50;;;;;;;5.13;1.70;;;11.70;99.90;;;;;;5005057;28;20041;-71
2022/11/05 13:51:45;;;;;;;4.15;1.67;;;11.70;99.90;;;;;;5018279;28;20560;-72
2022/11/05 13:54:29;;;;;;;4.28;1.50;;;11.60;99.90;;;;;;4998816;28;20056;-71
2022/11/05 13:57:13;;;;;;;5.03;1.58;;;11.60;99.90;;;;;;5014630;28;20048;-72
2022/11/05 13:59:53;;;;;;;4.82;2.13;;;11.70;99.90;;;;;;5038598;28;20056;-71